Asia, Texas
Current Conditions -  °F | °C
As of 6:53 PM on Monday 20 Oct 2014 (Local Time) from KLFK Reporting Station
Clear Clear  
Wind Chill: 70°   Ceiling: Unl
Heat Index: 70°   Visibility: 10mi
Dew Point: 59°   Wind: 3mph
Humidity: 68%   Direction: 40°NE
Pressure: 30.02"   Gusts: NA
Location:  31.024°N, 94.7686°W
Report Text: KLFK 202353Z AUTO 04003KT 10SM CLR 21/15 A3002 RMK AO2 SLP164 T02110150 10278 20206 53001
Loading
Personal Weather Stations






























Interactive Weather Map
Tropical Storm Tracking
New forecast layout! Learn more

10-Day Weather Forecast

Advertisements
Track Severe Weather on mobile